首页
METAR-TAF:

METAR-TAF

机场 :

Tak, 泰国

纬度: 16-53N, 经度: 099-09E, 海拔: 121米

当前天气观测

该预报发布于2小时和43分钟前的11:00 UTC
温度 31°C
湿度 66%
气压 1005 hPa
能见度10公里或以上
散云层高于2600英尺

METAR: VTPT 171100Z /////KT 9999 SCT026 31/24 Q1005 NOSIG

时间: 20:43 (13:43 UTC)

预报

该预报发布于2小时和43分钟前的11:00 UTC
预报有效从17日的 12点(UTC)到 18日的 12点(UTC)
风速5节,风向西转西南
能见度10公里或以上
散云层高于2600英尺
短暂存在
从 17日的 20点(UTC)到 17日的 23点(UTC)
少量云层高于2000英尺, 积雨云.
多云层高于2600英尺
雷暴, 小雨,

TAF: VTPT 171100Z 1712/1812 25005KT 9999 SCT026 TEMPO 1720/1723 -TSRA FEW020CB BKN026

超过4000个机场的气象观测和天气预报(METAR&TAF报告)。

可查询的气象台以黄色和红色小点在地图上表示。

将鼠标移到小点上方,可查看气象台名称。

然后点击查看天气观测和预报。

如需切换地图:点击带黑十字的绿色按钮放大地图;点击带横线的绿色按钮缩小地图;或者点击绿色箭头查看邻近地区的地图。


METAR-TAF: